Stations météo

réclame
Mon MeteoGroup
Somosierra, Espagne (8145): Température de l'air & dewpoint: 12.10.2017 05:00:00 - 18.10.2017 05:00:00 (CEST)Somosierra, Espagne (8145): Vitesse du vent & gusts: 12.10.2017 05:00:00 - 18.10.2017 05:00:00 (CEST)Somosierra, Espagne (8145): Direction du vent: 12.10.2017 05:00:00 - 18.10.2017 05:00:00 (CEST)Somosierra, Espagne (8145): Quantités de précipitations: 12.10.2017 05:00:00 - 18.10.2017 05:00:00 (CEST)
Date & Time tt [°C] td [°C] ff [km/h] ff [knt] fx [km/h] fx [knt] dd rr [mm]
18.10.2017 05:00:00 8,7 7,1 15 8 26 14 ESE 0,0
18.10.2017 04:00:00 9,0 7,3 15 8 35 19 ESE 0,3
18.10.2017 03:00:00 9,2 7,7 14 8 37 20 ESE 0,0
18.10.2017 02:00:00 9,4 7,7 13 7 34 18 ESE -
18.10.2017 01:00:00 9,3 7,6 18 10 34 18 ESE 0,0
18.10.2017 00:00:00 9,5 8,3 15 8 32 17 ESE 0,1
17.10.2017 23:00:00 9,3 8,3 13 7 27 15 ESE 0,0
17.10.2017 22:00:00 9,4 8,1 16 9 36 20 ESE 0,1
17.10.2017 21:00:00 9,5 8,4 20 11 39 21 ESE 0,6
17.10.2017 20:00:00 9,8 8,3 21 12 41 22 ESE -
17.10.2017 19:00:00 9,9 8,4 19 11 41 22 ESE 0,5
17.10.2017 18:00:00 10,2 8,5 14 8 31 17 SE 0,1
17.10.2017 17:00:00 10,0 8,4 15 8 31 17 SE 1,9
17.10.2017 16:00:00 10,3 7,7 18 10 34 18 ESE 0,1
17.10.2017 15:00:00 9,7 7,4 16 9 39 21 ESE 0,0
17.10.2017 14:00:00 10,9 6,8 18 10 34 18 SE -
17.10.2017 13:00:00 10,6 6,5 18 10 35 19 SE 0,0
17.10.2017 12:00:00 9,6 7,4 19 10 36 19 SE 0,0
17.10.2017 11:00:00 8,9 6,7 21 11 39 21 SE 0,0
17.10.2017 10:00:00 9,2 6,2 19 10 34 18 SE 0,0
17.10.2017 09:00:00 8,8 5,5 16 9 32 17 SSE 0,0
17.10.2017 08:00:00 9,2 5,8 16 9 28 15 SE -
17.10.2017 07:00:00 9,5 5,5 16 9 23 13 SSE 0,0
17.10.2017 06:00:00 9,8 5,0 11 6 29 16 SE 0,0
17.10.2017 05:00:00 10,0 4,1 14 8 29 15 SE 0,0
17.10.2017 04:00:00 11,3 4,1 17 9 28 15 ESE 0,0
17.10.2017 03:00:00 12,3 3,8 14 8 34 18 ESE 0,0
17.10.2017 02:00:00 13,3 3,9 16 8 30 16 ESE -
17.10.2017 01:00:00 13,8 3,8 12 6 22 12 ESE 0,0
17.10.2017 00:00:00 12,3 3,0 8 4 14 8 SE 0,0
16.10.2017 23:00:00 13,0 2,9 7 4 16 9 ESE 0,0
16.10.2017 22:00:00 13,9 3,4 11 6 20 11 E 0,0
16.10.2017 21:00:00 13,7 3,2 12 6 21 12 E 0,0
16.10.2017 20:00:00 14,4 3,2 8 4 19 10 ESE -
16.10.2017 19:00:00 16,5 4,1 10 5 27 14 SE 0,0
16.10.2017 18:00:00 18,8 5,3 12 6 27 14 SSE 0,0
16.10.2017 17:00:00 20,0 5,9 13 7 28 15 S 0,0
16.10.2017 16:00:00 20,1 6,8 11 6 26 14 SSE 0,0
16.10.2017 15:00:00 19,8 6,8 11 6 23 12 S 0,0
16.10.2017 14:00:00 18,9 7,3 11 6 27 15 SSE -
16.10.2017 13:00:00 17,6 8,4 11 6 25 13 SSE 0,0
16.10.2017 12:00:00 15,8 8,3 11 6 24 13 SSE 0,0
16.10.2017 11:00:00 14,4 8,1 11 6 24 13 SE 0,0
16.10.2017 10:00:00 12,3 7,4 12 7 20 11 SE 0,0
16.10.2017 09:00:00 9,5 5,6 9 5 16 9 ESE 0,0
16.10.2017 08:00:00 9,7 5,0 10 6 18 10 SE -
16.10.2017 07:00:00 11,4 5,5 10 6 19 11 ESE 0,0
16.10.2017 06:00:00 11,2 4,1 10 6 18 10 ESE 0,0
16.10.2017 05:00:00 11,9 3,4 11 6 21 11 SE 0,0
16.10.2017 04:00:00 12,7 3,0 12 6 21 11 E 0,0
16.10.2017 03:00:00 14,0 2,9 17 9 36 19 ESE 0,0
16.10.2017 02:00:00 14,6 2,9 19 10 38 20 ESE -
16.10.2017 01:00:00 14,9 2,7 19 11 34 18 ESE 0,0
16.10.2017 00:00:00 15,9 2,7 15 8 33 18 ESE 0,0
15.10.2017 23:00:00 16,3 2,7 16 9 37 20 ESE 0,0
15.10.2017 22:00:00 17,3 3,6 17 9 32 18 ESE 0,0
15.10.2017 21:00:00 17,7 4,6 11 6 27 15 ESE 0,0
15.10.2017 20:00:00 17,9 4,5 15 8 26 14 ESE -
15.10.2017 19:00:00 18,9 4,3 15 8 28 15 ESE 0,0
15.10.2017 18:00:00 20,9 4,8 14 8 33 18 S 0,0
15.10.2017 17:00:00 21,8 5,6 14 8 35 19 S 0,0
15.10.2017 16:00:00 22,6 5,9 15 8 33 18 SSE 0,0
15.10.2017 15:00:00 22,6 6,4 13 7 26 14 S 0,0
15.10.2017 14:00:00 21,9 6,1 9 5 26 14 S -
15.10.2017 13:00:00 21,4 6,1 11 6 22 12 S 0,0
15.10.2017 12:00:00 19,2 5,3 9 5 17 9 SE 0,0
15.10.2017 11:00:00 18,5 5,6 5 3 11 6 SSE 0,0
15.10.2017 10:00:00 14,6 2,9 2 1 9 5 SE 0,0
15.10.2017 09:00:00 14,6 2,5 4 2 8 4 SE 0,0
15.10.2017 08:00:00 14,1 2,1 3 2 7 4 ESE -
15.10.2017 07:00:00 14,0 1,9 4 2 7 4 E 0,0
15.10.2017 06:00:00 14,2 2,1 4 2 9 5 SSE 0,0
15.10.2017 05:00:00 13,7 1,7 5 3 10 5 SE 0,0
15.10.2017 04:00:00 15,8 2,5 5 3 9 5 ESE 0,0
15.10.2017 03:00:00 15,1 1,9 0 0 7 4 ESE 0,0
15.10.2017 02:00:00 15,9 2,7 2 1 6 4 NE -
15.10.2017 01:00:00 15,3 2,5 0 0 9 5 NE 0,0
15.10.2017 00:00:00 14,6 2,1 3 2 8 4 ESE 0,0
14.10.2017 23:00:00 13,5 1,1 2 1 7 4 SE 0,0
14.10.2017 22:00:00 14,0 1,7 1 0 5 3 E 0,0
14.10.2017 21:00:00 14,1 1,7 0 0 9 5 ESE 0,0
14.10.2017 20:00:00 16,8 3,0 5 3 12 7 ESE -
14.10.2017 19:00:00 18,1 3,6 4 2 12 6 ESE 0,0
14.10.2017 18:00:00 22,1 4,6 5 3 16 9 SSE 0,0
14.10.2017 17:00:00 23,2 5,1 7 4 17 9 SSE 0,0
14.10.2017 16:00:00 23,0 5,0 6 3 20 11 SE 0,0
14.10.2017 15:00:00 22,6 5,1 8 5 21 11 S 0,0
14.10.2017 14:00:00 22,1 5,1 8 4 20 11 S -
14.10.2017 13:00:00 20,7 5,1 10 5 21 11 SSE 0,0
14.10.2017 12:00:00 19,2 5,0 10 5 19 11 SE 0,0
14.10.2017 11:00:00 17,2 4,5 9 5 16 9 ESE 0,0
14.10.2017 10:00:00 15,8 4,5 8 5 14 7 ESE 0,0
14.10.2017 09:00:00 12,0 1,7 8 4 12 6 ESE 0,0
14.10.2017 08:00:00 11,5 0,9 6 4 10 6 ESE -
14.10.2017 07:00:00 13,5 1,1 7 4 10 5 ESE 0,0
14.10.2017 06:00:00 13,8 1,1 7 4 15 8 ESE 0,0
14.10.2017 05:00:00 13,0 1,9 9 5 16 9 ESE 0,0
14.10.2017 04:00:00 13,6 3,4 8 4 13 7 ESE 0,0
14.10.2017 03:00:00 12,2 2,1 0 0 5 3 NNE 0,0
14.10.2017 02:00:00 12,1 1,9 3 1 6 4 SE -
14.10.2017 01:00:00 13,1 1,7 3 1 6 4 NNE 0,0
14.10.2017 00:00:00 14,7 1,5 5 3 8 4 E 0,0
13.10.2017 23:00:00 14,0 0,9 3 2 13 7 SE 0,0
13.10.2017 22:00:00 16,1 2,1 8 4 13 7 ESE 0,0
13.10.2017 21:00:00 15,5 1,9 5 3 11 6 SSE 0,0
13.10.2017 20:00:00 16,4 2,5 6 3 11 6 ESE -
13.10.2017 19:00:00 19,3 3,8 6 3 17 9 SSE 0,0
13.10.2017 18:00:00 21,4 5,3 7 4 21 11 SSE 0,0
13.10.2017 17:00:00 22,3 6,1 8 4 22 12 S 0,0
13.10.2017 16:00:00 22,1 5,5 9 5 23 13 SSE 0,0
13.10.2017 15:00:00 21,8 5,6 9 5 26 14 S 0,0
13.10.2017 14:00:00 20,7 5,5 11 6 28 15 SE -
13.10.2017 13:00:00 20,4 4,8 12 6 26 14 SSE 0,0
13.10.2017 12:00:00 19,1 4,1 10 5 19 11 S 0,0
13.10.2017 11:00:00 19,3 4,3 6 3 11 6 ESE 0,0
13.10.2017 10:00:00 17,3 4,6 5 3 8 4 ESE 0,0
13.10.2017 09:00:00 13,0 1,7 6 3 9 5 ESE 0,0
13.10.2017 08:00:00 12,1 0,4 2 1 5 3 NNE -
13.10.2017 07:00:00 12,5 0,2 1 1 8 4 NNE 0,0
13.10.2017 06:00:00 13,2 0,0 2 1 9 5 SE 0,0
13.10.2017 05:00:00 14,4 0,9 5 3 10 5 E 0,0
13.10.2017 04:00:00 14,2 0,4 5 3 10 6 ESE 0,0
13.10.2017 03:00:00 14,1 0,6 4 2 11 6 ESE 0,0
13.10.2017 02:00:00 15,6 1,3 6 3 10 6 E -
13.10.2017 01:00:00 15,2 0,9 5 3 11 6 ESE 0,0
13.10.2017 00:00:00 15,9 1,3 7 4 13 7 E 0,0
12.10.2017 23:00:00 - - - - - - - -
12.10.2017 22:00:00 - - - - - - - -
12.10.2017 21:00:00 - - - - - - - -
12.10.2017 20:00:00 - - - - - - - -
12.10.2017 19:00:00 18,8 1,3 9 5 19 11 ESE 0,0
12.10.2017 18:00:00 20,6 2,5 8 5 21 11 SSE 0,0
12.10.2017 17:00:00 21,6 2,3 8 4 26 14 S 0,0
12.10.2017 16:00:00 22,3 2,5 7 4 19 10 SSE 0,0
12.10.2017 15:00:00 21,7 1,9 8 5 22 12 S 0,0
12.10.2017 14:00:00 20,6 1,9 7 4 19 10 S -
12.10.2017 13:00:00 20,8 2,7 7 4 18 10 SSE 0,0
12.10.2017 12:00:00 20,4 2,7 5 3 14 8 S 0,0
12.10.2017 11:00:00 18,7 2,5 5 3 11 6 SE 0,0
12.10.2017 10:00:00 15,8 2,3 6 3 9 5 ESE 0,0
12.10.2017 09:00:00 10,2 -2,2 2 1 7 4 SE 0,0
12.10.2017 08:00:00 11,5 -2,0 5 3 9 5 ESE -
12.10.2017 07:00:00 9,7 -3,6 3 2 6 3 NE 0,0
12.10.2017 06:00:00 10,8 -3,3 3 1 7 4 NE 0,0
12.10.2017 05:00:00 10,6 -3,6 1 1 6 3 NNE 0,0

tt = Température de l'air
td = dewpoint
ff = Vitesse du vent
fx = gusts
dd = Direction du vent
rr = Quantités de précipitations

stations d'obs. à proximité